sensor_id;sensor_type;location;lat;lon;timestamp;P1;durP1;ratioP1;P2;durP2;ratioP2
18732;SDS011;9495;51.210;2.934;2023-04-30T00:00:46;15.07;;;11.63;;
18732;SDS011;9495;51.210;2.934;2023-04-30T00:03:14;18.60;;;11.20;;
18732;SDS011;9495;51.210;2.934;2023-04-30T00:05:43;20.43;;;12.50;;
18732;SDS011;9495;51.210;2.934;2023-04-30T00:08:11;18.10;;;12.80;;
18732;SDS011;9495;51.210;2.934;2023-04-30T00:10:40;19.77;;;13.30;;
18732;SDS011;9495;51.210;2.934;2023-04-30T00:13:09;18.23;;;12.73;;
18732;SDS011;9495;51.210;2.934;2023-04-30T00:15:39;19.10;;;12.80;;
18732;SDS011;9495;51.210;2.934;2023-04-30T00:18:07;17.03;;;12.40;;
18732;SDS011;9495;51.210;2.934;2023-04-30T00:20:36;19.27;;;12.90;;
18732;SDS011;9495;51.210;2.934;2023-04-30T00:23:05;20.93;;;13.07;;
18732;SDS011;9495;51.210;2.934;2023-04-30T00:25:33;18.43;;;13.80;;
18732;SDS011;9495;51.210;2.934;2023-04-30T00:28:02;18.57;;;13.30;;
18732;SDS011;9495;51.210;2.934;2023-04-30T00:30:32;20.23;;;14.17;;
18732;SDS011;9495;51.210;2.934;2023-04-30T00:33:00;18.43;;;14.70;;
18732;SDS011;9495;51.210;2.934;2023-04-30T00:35:29;23.83;;;13.53;;
18732;SDS011;9495;51.210;2.934;2023-04-30T00:37:57;21.07;;;12.77;;
18732;SDS011;9495;51.210;2.934;2023-04-30T00:40:26;20.67;;;13.37;;
18732;SDS011;9495;51.210;2.934;2023-04-30T00:42:54;21.67;;;13.57;;
18732;SDS011;9495;51.210;2.934;2023-04-30T00:45:22;21.73;;;13.63;;
18732;SDS011;9495;51.210;2.934;2023-04-30T00:47:52;21.63;;;13.37;;
18732;SDS011;9495;51.210;2.934;2023-04-30T00:50:21;20.33;;;14.23;;
18732;SDS011;9495;51.210;2.934;2023-04-30T00:52:51;20.97;;;13.33;;
18732;SDS011;9495;51.210;2.934;2023-04-30T00:55:19;21.03;;;13.10;;
18732;SDS011;9495;51.210;2.934;2023-04-30T00:57:48;20.60;;;12.70;;
18732;SDS011;9495;51.210;2.934;2023-04-30T01:00:17;18.40;;;12.20;;
18732;SDS011;9495;51.210;2.934;2023-04-30T01:02:46;20.73;;;13.50;;
18732;SDS011;9495;51.210;2.934;2023-04-30T01:05:17;25.10;;;14.23;;
18732;SDS011;9495;51.210;2.934;2023-04-30T01:07:45;21.43;;;14.00;;
18732;SDS011;9495;51.210;2.934;2023-04-30T01:10:14;20.30;;;13.67;;
18732;SDS011;9495;51.210;2.934;2023-04-30T01:12:44;25.00;;;15.03;;
18732;SDS011;9495;51.210;2.934;2023-04-30T01:15:24;22.03;;;14.70;;
18732;SDS011;9495;51.210;2.934;2023-04-30T01:17:58;22.37;;;13.90;;
18732;SDS011;9495;51.210;2.934;2023-04-30T01:20:34;28.33;;;15.67;;
18732;SDS011;9495;51.210;2.934;2023-04-30T01:23:10;21.17;;;15.73;;
18732;SDS011;9495;51.210;2.934;2023-04-30T01:25:51;25.73;;;15.17;;
18732;SDS011;9495;51.210;2.934;2023-04-30T01:28:27;23.73;;;15.90;;
18732;SDS011;9495;51.210;2.934;2023-04-30T01:30:56;23.63;;;16.30;;
18732;SDS011;9495;51.210;2.934;2023-04-30T01:33:25;25.77;;;16.23;;
18732;SDS011;9495;51.210;2.934;2023-04-30T01:35:57;23.30;;;16.70;;
18732;SDS011;9495;51.210;2.934;2023-04-30T01:38:41;25.47;;;17.40;;
18732;SDS011;9495;51.210;2.934;2023-04-30T01:41:32;25.57;;;16.83;;
18732;SDS011;9495;51.210;2.934;2023-04-30T01:44:18;25.43;;;17.30;;
18732;SDS011;9495;51.210;2.934;2023-04-30T01:46:57;25.77;;;17.07;;
18732;SDS011;9495;51.210;2.934;2023-04-30T01:49:36;25.97;;;17.13;;
18732;SDS011;9495;51.210;2.934;2023-04-30T01:52:17;24.60;;;17.00;;
18732;SDS011;9495;51.210;2.934;2023-04-30T01:54:54;30.80;;;18.33;;
18732;SDS011;9495;51.210;2.934;2023-04-30T01:57:28;28.30;;;18.67;;
18732;SDS011;9495;51.210;2.934;2023-04-30T02:00:00;30.07;;;19.50;;
18732;SDS011;9495;51.210;2.934;2023-04-30T02:02:30;26.03;;;18.83;;
18732;SDS011;9495;51.210;2.934;2023-04-30T02:04:59;33.07;;;19.30;;
18732;SDS011;9495;51.210;2.934;2023-04-30T02:07:37;26.90;;;17.60;;
18732;SDS011;9495;51.210;2.934;2023-04-30T02:10:08;27.83;;;19.27;;
18732;SDS011;9495;51.210;2.934;2023-04-30T02:12:37;27.93;;;19.30;;
18732;SDS011;9495;51.210;2.934;2023-04-30T02:15:08;26.93;;;18.83;;
18732;SDS011;9495;51.210;2.934;2023-04-30T02:17:37;27.40;;;18.53;;
18732;SDS011;9495;51.210;2.934;2023-04-30T02:20:06;26.80;;;19.43;;
18732;SDS011;9495;51.210;2.934;2023-04-30T02:22:34;29.80;;;20.30;;
18732;SDS011;9495;51.210;2.934;2023-04-30T02:25:03;27.97;;;19.33;;
18732;SDS011;9495;51.210;2.934;2023-04-30T02:27:32;28.60;;;19.50;;
18732;SDS011;9495;51.210;2.934;2023-04-30T02:30:01;34.03;;;20.33;;
18732;SDS011;9495;51.210;2.934;2023-04-30T02:32:31;33.60;;;21.90;;
18732;SDS011;9495;51.210;2.934;2023-04-30T02:34:59;33.27;;;20.03;;
18732;SDS011;9495;51.210;2.934;2023-04-30T02:37:28;28.00;;;19.90;;
18732;SDS011;9495;51.210;2.934;2023-04-30T02:39:56;32.40;;;20.57;;
18732;SDS011;9495;51.210;2.934;2023-04-30T02:42:25;29.23;;;20.80;;
18732;SDS011;9495;51.210;2.934;2023-04-30T02:44:53;29.10;;;20.67;;
18732;SDS011;9495;51.210;2.934;2023-04-30T02:47:22;33.43;;;21.50;;
18732;SDS011;9495;51.210;2.934;2023-04-30T02:49:51;30.03;;;20.60;;
18732;SDS011;9495;51.210;2.934;2023-04-30T02:52:20;37.23;;;20.50;;
18732;SDS011;9495;51.210;2.934;2023-04-30T02:54:49;30.47;;;20.57;;
18732;SDS011;9495;51.210;2.934;2023-04-30T02:57:17;30.60;;;20.63;;
18732;SDS011;9495;51.210;2.934;2023-04-30T02:59:46;30.50;;;21.37;;
18732;SDS011;9495;51.210;2.934;2023-04-30T03:02:14;30.60;;;21.60;;
18732;SDS011;9495;51.210;2.934;2023-04-30T03:04:47;31.63;;;21.63;;
18732;SDS011;9495;51.210;2.934;2023-04-30T03:07:16;33.10;;;23.33;;
18732;SDS011;9495;51.210;2.934;2023-04-30T03:09:45;36.03;;;22.60;;
18732;SDS011;9495;51.210;2.934;2023-04-30T03:12:13;33.57;;;23.63;;
18732;SDS011;9495;51.210;2.934;2023-04-30T03:14:42;32.87;;;23.87;;
18732;SDS011;9495;51.210;2.934;2023-04-30T03:17:10;38.70;;;24.83;;
18732;SDS011;9495;51.210;2.934;2023-04-30T03:19:39;35.80;;;24.23;;
18732;SDS011;9495;51.210;2.934;2023-04-30T03:22:07;31.33;;;22.77;;
18732;SDS011;9495;51.210;2.934;2023-04-30T03:24:38;38.47;;;24.90;;
18732;SDS011;9495;51.210;2.934;2023-04-30T03:27:06;32.53;;;23.90;;
18732;SDS011;9495;51.210;2.934;2023-04-30T03:29:35;37.90;;;25.47;;
18732;SDS011;9495;51.210;2.934;2023-04-30T03:32:04;37.50;;;24.40;;
18732;SDS011;9495;51.210;2.934;2023-04-30T03:34:32;36.07;;;24.83;;
18732;SDS011;9495;51.210;2.934;2023-04-30T03:37:00;39.40;;;25.27;;
18732;SDS011;9495;51.210;2.934;2023-04-30T03:39:29;38.07;;;25.60;;
18732;SDS011;9495;51.210;2.934;2023-04-30T03:41:59;40.07;;;26.53;;
18732;SDS011;9495;51.210;2.934;2023-04-30T03:44:29;41.20;;;27.03;;
18732;SDS011;9495;51.210;2.934;2023-04-30T03:46:57;38.67;;;26.43;;
18732;SDS011;9495;51.210;2.934;2023-04-30T03:49:25;38.90;;;27.57;;
18732;SDS011;9495;51.210;2.934;2023-04-30T03:51:54;40.60;;;26.37;;
18732;SDS011;9495;51.210;2.934;2023-04-30T03:54:22;37.30;;;27.23;;
18732;SDS011;9495;51.210;2.934;2023-04-30T03:56:51;40.03;;;28.03;;
18732;SDS011;9495;51.210;2.934;2023-04-30T03:59:20;43.43;;;28.93;;
18732;SDS011;9495;51.210;2.934;2023-04-30T04:01:49;44.63;;;30.47;;
18732;SDS011;9495;51.210;2.934;2023-04-30T04:04:18;41.20;;;28.83;;
18732;SDS011;9495;51.210;2.934;2023-04-30T04:06:46;48.23;;;29.80;;
18732;SDS011;9495;51.210;2.934;2023-04-30T04:09:15;45.07;;;28.53;;
18732;SDS011;9495;51.210;2.934;2023-04-30T04:11:43;43.17;;;29.40;;
18732;SDS011;9495;51.210;2.934;2023-04-30T04:14:12;48.80;;;30.93;;
18732;SDS011;9495;51.210;2.934;2023-04-30T04:16:42;42.67;;;30.40;;
18732;SDS011;9495;51.210;2.934;2023-04-30T04:19:11;47.03;;;31.43;;
18732;SDS011;9495;51.210;2.934;2023-04-30T04:21:39;47.67;;;30.83;;
18732;SDS011;9495;51.210;2.934;2023-04-30T04:24:08;44.57;;;30.83;;
18732;SDS011;9495;51.210;2.934;2023-04-30T04:26:36;47.90;;;31.37;;
18732;SDS011;9495;51.210;2.934;2023-04-30T04:29:05;47.53;;;32.73;;
18732;SDS011;9495;51.210;2.934;2023-04-30T04:31:34;45.80;;;32.53;;
18732;SDS011;9495;51.210;2.934;2023-04-30T04:34:05;48.47;;;33.43;;
18732;SDS011;9495;51.210;2.934;2023-04-30T04:36:33;50.80;;;33.47;;
18732;SDS011;9495;51.210;2.934;2023-04-30T04:39:02;47.97;;;33.33;;
18732;SDS011;9495;51.210;2.934;2023-04-30T04:41:31;49.27;;;32.83;;
18732;SDS011;9495;51.210;2.934;2023-04-30T04:44:00;53.23;;;33.10;;
18732;SDS011;9495;51.210;2.934;2023-04-30T04:46:30;50.00;;;34.37;;
18732;SDS011;9495;51.210;2.934;2023-04-30T04:48:59;49.17;;;33.30;;
18732;SDS011;9495;51.210;2.934;2023-04-30T04:51:29;53.00;;;34.93;;
18732;SDS011;9495;51.210;2.934;2023-04-30T04:53:57;50.70;;;31.93;;
18732;SDS011;9495;51.210;2.934;2023-04-30T04:56:26;50.07;;;33.73;;
18732;SDS011;9495;51.210;2.934;2023-04-30T04:58:54;46.93;;;32.73;;
18732;SDS011;9495;51.210;2.934;2023-04-30T05:01:22;53.67;;;33.70;;
18732;SDS011;9495;51.210;2.934;2023-04-30T05:03:51;53.00;;;33.67;;
18732;SDS011;9495;51.210;2.934;2023-04-30T05:06:20;46.90;;;32.37;;
18732;SDS011;9495;51.210;2.934;2023-04-30T05:08:50;46.47;;;32.00;;
18732;SDS011;9495;51.210;2.934;2023-04-30T05:11:18;49.17;;;33.83;;
18732;SDS011;9495;51.210;2.934;2023-04-30T05:13:48;51.43;;;33.87;;
18732;SDS011;9495;51.210;2.934;2023-04-30T05:16:16;51.30;;;34.33;;
18732;SDS011;9495;51.210;2.934;2023-04-30T05:18:45;55.03;;;35.13;;
18732;SDS011;9495;51.210;2.934;2023-04-30T05:21:13;57.40;;;36.37;;
18732;SDS011;9495;51.210;2.934;2023-04-30T05:23:42;56.07;;;36.53;;
18732;SDS011;9495;51.210;2.934;2023-04-30T05:26:12;54.10;;;36.20;;
18732;SDS011;9495;51.210;2.934;2023-04-30T05:28:41;60.03;;;37.60;;
18732;SDS011;9495;51.210;2.934;2023-04-30T05:31:10;62.50;;;38.70;;
18732;SDS011;9495;51.210;2.934;2023-04-30T05:33:39;59.37;;;36.77;;
18732;SDS011;9495;51.210;2.934;2023-04-30T05:36:07;68.53;;;40.07;;
18732;SDS011;9495;51.210;2.934;2023-04-30T05:38:36;63.77;;;39.60;;
18732;SDS011;9495;51.210;2.934;2023-04-30T05:41:04;57.33;;;36.10;;
18732;SDS011;9495;51.210;2.934;2023-04-30T05:43:34;59.40;;;34.83;;
18732;SDS011;9495;51.210;2.934;2023-04-30T05:46:03;54.57;;;33.90;;
18732;SDS011;9495;51.210;2.934;2023-04-30T05:48:32;56.53;;;34.70;;
18732;SDS011;9495;51.210;2.934;2023-04-30T05:51:00;50.10;;;31.53;;
18732;SDS011;9495;51.210;2.934;2023-04-30T05:53:29;49.57;;;31.37;;
18732;SDS011;9495;51.210;2.934;2023-04-30T05:55:57;50.80;;;32.50;;
18732;SDS011;9495;51.210;2.934;2023-04-30T05:58:25;48.13;;;30.93;;
18732;SDS011;9495;51.210;2.934;2023-04-30T06:00:55;49.17;;;31.37;;
18732;SDS011;9495;51.210;2.934;2023-04-30T06:03:25;59.33;;;34.40;;
18732;SDS011;9495;51.210;2.934;2023-04-30T06:05:53;56.80;;;32.77;;
18732;SDS011;9495;51.210;2.934;2023-04-30T06:08:22;59.37;;;33.73;;
18732;SDS011;9495;51.210;2.934;2023-04-30T06:10:51;60.57;;;33.70;;
18732;SDS011;9495;51.210;2.934;2023-04-30T06:13:19;68.63;;;36.40;;
18732;SDS011;9495;51.210;2.934;2023-04-30T06:15:48;66.57;;;34.23;;
18732;SDS011;9495;51.210;2.934;2023-04-30T06:18:18;64.90;;;36.47;;
18732;SDS011;9495;51.210;2.934;2023-04-30T06:20:47;62.00;;;36.33;;
18732;SDS011;9495;51.210;2.934;2023-04-30T06:23:15;61.33;;;35.67;;
18732;SDS011;9495;51.210;2.934;2023-04-30T06:25:44;66.17;;;36.33;;
18732;SDS011;9495;51.210;2.934;2023-04-30T06:28:12;64.70;;;36.20;;
18732;SDS011;9495;51.210;2.934;2023-04-30T06:30:41;63.50;;;34.87;;
18732;SDS011;9495;51.210;2.934;2023-04-30T06:33:10;60.13;;;35.17;;
18732;SDS011;9495;51.210;2.934;2023-04-30T06:35:40;65.13;;;35.50;;
18732;SDS011;9495;51.210;2.934;2023-04-30T06:38:08;58.07;;;31.30;;
18732;SDS011;9495;51.210;2.934;2023-04-30T06:40:39;56.73;;;31.97;;
18732;SDS011;9495;51.210;2.934;2023-04-30T06:43:07;56.60;;;32.70;;
18732;SDS011;9495;51.210;2.934;2023-04-30T06:45:36;56.93;;;33.03;;
18732;SDS011;9495;51.210;2.934;2023-04-30T06:48:04;61.00;;;33.37;;
18732;SDS011;9495;51.210;2.934;2023-04-30T06:50:33;56.37;;;33.20;;
18732;SDS011;9495;51.210;2.934;2023-04-30T06:53:10;60.13;;;32.60;;
18732;SDS011;9495;51.210;2.934;2023-04-30T06:55:39;58.67;;;32.07;;
18732;SDS011;9495;51.210;2.934;2023-04-30T06:58:08;55.13;;;31.77;;
18732;SDS011;9495;51.210;2.934;2023-04-30T07:00:37;50.73;;;30.50;;
18732;SDS011;9495;51.210;2.934;2023-04-30T07:03:05;54.87;;;31.93;;
18732;SDS011;9495;51.210;2.934;2023-04-30T07:05:34;54.20;;;31.43;;
18732;SDS011;9495;51.210;2.934;2023-04-30T07:08:03;56.87;;;31.00;;
18732;SDS011;9495;51.210;2.934;2023-04-30T07:10:33;49.17;;;29.33;;
18732;SDS011;9495;51.210;2.934;2023-04-30T07:13:02;52.23;;;31.13;;
18732;SDS011;9495;51.210;2.934;2023-04-30T07:15:30;47.97;;;29.50;;
18732;SDS011;9495;51.210;2.934;2023-04-30T07:17:59;52.33;;;29.90;;
18732;SDS011;9495;51.210;2.934;2023-04-30T07:20:29;46.47;;;28.87;;
18732;SDS011;9495;51.210;2.934;2023-04-30T07:22:57;46.67;;;27.43;;
18732;SDS011;9495;51.210;2.934;2023-04-30T07:25:26;46.57;;;27.33;;
18732;SDS011;9495;51.210;2.934;2023-04-30T07:27:56;45.47;;;28.20;;
18732;SDS011;9495;51.210;2.934;2023-04-30T07:30:24;44.73;;;27.67;;
18732;SDS011;9495;51.210;2.934;2023-04-30T07:32:53;42.00;;;28.07;;
18732;SDS011;9495;51.210;2.934;2023-04-30T07:35:22;49.47;;;27.27;;
18732;SDS011;9495;51.210;2.934;2023-04-30T07:37:51;42.10;;;26.37;;
18732;SDS011;9495;51.210;2.934;2023-04-30T07:40:20;47.50;;;27.43;;
18732;SDS011;9495;51.210;2.934;2023-04-30T07:43:02;47.00;;;28.13;;
18732;SDS011;9495;51.210;2.934;2023-04-30T07:45:31;42.63;;;27.13;;
18732;SDS011;9495;51.210;2.934;2023-04-30T07:48:00;53.30;;;29.20;;
18732;SDS011;9495;51.210;2.934;2023-04-30T07:50:29;43.60;;;27.30;;
18732;SDS011;9495;51.210;2.934;2023-04-30T07:53:00;47.13;;;26.87;;
18732;SDS011;9495;51.210;2.934;2023-04-30T07:55:28;44.80;;;27.43;;
18732;SDS011;9495;51.210;2.934;2023-04-30T07:57:57;45.67;;;27.70;;
18732;SDS011;9495;51.210;2.934;2023-04-30T08:00:29;47.53;;;27.43;;
18732;SDS011;9495;51.210;2.934;2023-04-30T08:02:57;41.97;;;23.70;;
18732;SDS011;9495;51.210;2.934;2023-04-30T08:05:27;43.43;;;25.60;;
18732;SDS011;9495;51.210;2.934;2023-04-30T08:07:55;39.93;;;24.73;;
18732;SDS011;9495;51.210;2.934;2023-04-30T08:10:24;43.60;;;25.43;;
18732;SDS011;9495;51.210;2.934;2023-04-30T08:12:53;41.50;;;25.57;;
18732;SDS011;9495;51.210;2.934;2023-04-30T08:15:21;45.20;;;26.10;;
18732;SDS011;9495;51.210;2.934;2023-04-30T08:17:51;38.73;;;25.33;;
18732;SDS011;9495;51.210;2.934;2023-04-30T08:20:20;39.80;;;26.23;;
18732;SDS011;9495;51.210;2.934;2023-04-30T08:22:49;41.00;;;23.37;;
18732;SDS011;9495;51.210;2.934;2023-04-30T08:25:18;41.23;;;25.40;;
18732;SDS011;9495;51.210;2.934;2023-04-30T08:27:46;37.80;;;25.33;;
18732;SDS011;9495;51.210;2.934;2023-04-30T08:30:15;39.97;;;25.33;;
18732;SDS011;9495;51.210;2.934;2023-04-30T08:32:43;41.53;;;26.43;;
18732;SDS011;9495;51.210;2.934;2023-04-30T08:35:13;40.03;;;25.43;;
18732;SDS011;9495;51.210;2.934;2023-04-30T08:37:42;38.30;;;25.93;;
18732;SDS011;9495;51.210;2.934;2023-04-30T08:40:10;43.13;;;26.77;;
18732;SDS011;9495;51.210;2.934;2023-04-30T08:42:40;40.77;;;25.67;;
18732;SDS011;9495;51.210;2.934;2023-04-30T08:45:13;34.63;;;23.63;;
18732;SDS011;9495;51.210;2.934;2023-04-30T08:47:41;39.30;;;24.50;;
18732;SDS011;9495;51.210;2.934;2023-04-30T08:50:13;40.53;;;24.27;;
18732;SDS011;9495;51.210;2.934;2023-04-30T08:52:41;33.70;;;23.43;;
18732;SDS011;9495;51.210;2.934;2023-04-30T08:55:10;34.97;;;23.10;;
18732;SDS011;9495;51.210;2.934;2023-04-30T08:57:39;35.67;;;23.30;;
18732;SDS011;9495;51.210;2.934;2023-04-30T09:00:08;34.20;;;22.33;;
18732;SDS011;9495;51.210;2.934;2023-04-30T09:02:38;34.83;;;23.20;;
18732;SDS011;9495;51.210;2.934;2023-04-30T09:05:08;37.00;;;23.60;;
18732;SDS011;9495;51.210;2.934;2023-04-30T09:07:40;38.97;;;23.37;;
18732;SDS011;9495;51.210;2.934;2023-04-30T09:10:31;33.23;;;22.03;;
18732;SDS011;9495;51.210;2.934;2023-04-30T09:13:00;33.90;;;22.93;;
18732;SDS011;9495;51.210;2.934;2023-04-30T09:15:30;33.40;;;22.03;;
18732;SDS011;9495;51.210;2.934;2023-04-30T09:18:06;27.57;;;18.33;;
18732;SDS011;9495;51.210;2.934;2023-04-30T09:20:35;32.30;;;19.63;;
18732;SDS011;9495;51.210;2.934;2023-04-30T09:23:06;25.93;;;17.20;;
18732;SDS011;9495;51.210;2.934;2023-04-30T09:25:38;27.77;;;18.60;;
18732;SDS011;9495;51.210;2.934;2023-04-30T09:28:08;25.03;;;16.57;;
18732;SDS011;9495;51.210;2.934;2023-04-30T09:30:37;24.20;;;16.77;;
18732;SDS011;9495;51.210;2.934;2023-04-30T09:33:06;22.17;;;14.83;;
18732;SDS011;9495;51.210;2.934;2023-04-30T09:35:38;21.03;;;14.20;;
18732;SDS011;9495;51.210;2.934;2023-04-30T09:38:23;22.60;;;16.37;;
18732;SDS011;9495;51.210;2.934;2023-04-30T09:40:52;24.70;;;17.03;;
18732;SDS011;9495;51.210;2.934;2023-04-30T09:43:21;22.17;;;14.90;;
18732;SDS011;9495;51.210;2.934;2023-04-30T09:45:50;20.93;;;15.43;;
18732;SDS011;9495;51.210;2.934;2023-04-30T09:48:20;25.87;;;18.67;;
18732;SDS011;9495;51.210;2.934;2023-04-30T09:50:49;23.37;;;14.27;;
18732;SDS011;9495;51.210;2.934;2023-04-30T09:53:19;20.77;;;13.73;;
18732;SDS011;9495;51.210;2.934;2023-04-30T09:55:49;19.03;;;14.17;;
18732;SDS011;9495;51.210;2.934;2023-04-30T09:58:18;24.63;;;16.77;;
18732;SDS011;9495;51.210;2.934;2023-04-30T10:00:47;23.50;;;17.25;;
18732;SDS011;9495;51.210;2.934;2023-04-30T10:03:19;21.87;;;15.30;;
18732;SDS011;9495;51.210;2.934;2023-04-30T10:05:49;23.57;;;16.77;;
18732;SDS011;9495;51.210;2.934;2023-04-30T10:08:24;26.07;;;16.13;;
18732;SDS011;9495;51.210;2.934;2023-04-30T10:10:56;22.35;;;15.38;;
18732;SDS011;9495;51.210;2.934;2023-04-30T10:13:28;25.42;;;16.65;;
18732;SDS011;9495;51.210;2.934;2023-04-30T10:15:59;22.20;;;15.90;;
18732;SDS011;9495;51.210;2.934;2023-04-30T10:18:34;23.83;;;16.83;;
18732;SDS011;9495;51.210;2.934;2023-04-30T10:21:06;22.40;;;15.80;;
18732;SDS011;9495;51.210;2.934;2023-04-30T10:23:39;19.60;;;14.77;;
18732;SDS011;9495;51.210;2.934;2023-04-30T10:26:09;19.40;;;13.77;;
18732;SDS011;9495;51.210;2.934;2023-04-30T10:28:38;18.00;;;14.35;;
18732;SDS011;9495;51.210;2.934;2023-04-30T10:31:07;36.83;;;22.65;;
18732;SDS011;9495;51.210;2.934;2023-04-30T10:33:40;19.83;;;13.97;;
18732;SDS011;9495;51.210;2.934;2023-04-30T10:36:17;14.15;;;10.85;;
18732;SDS011;9495;51.210;2.934;2023-04-30T10:38:52;20.63;;;13.87;;
18732;SDS011;9495;51.210;2.934;2023-04-30T10:41:21;32.92;;;20.92;;
18732;SDS011;9495;51.210;2.934;2023-04-30T10:43:54;47.33;;;29.85;;
18732;SDS011;9495;51.210;2.934;2023-04-30T10:46:27;18.13;;;11.02;;
18732;SDS011;9495;51.210;2.934;2023-04-30T10:48:55;12.27;;;9.35;;
18732;SDS011;9495;51.210;2.934;2023-04-30T10:51:33;10.77;;;8.50;;
18732;SDS011;9495;51.210;2.934;2023-04-30T10:54:14;12.52;;;9.02;;
18732;SDS011;9495;51.210;2.934;2023-04-30T10:56:44;11.68;;;8.52;;
18732;SDS011;9495;51.210;2.934;2023-04-30T10:59:14;10.05;;;8.25;;
18732;SDS011;9495;51.210;2.934;2023-04-30T11:04:26;16.08;;;9.13;;
18732;SDS011;9495;51.210;2.934;2023-04-30T11:07:00;12.13;;;8.90;;
18732;SDS011;9495;51.210;2.934;2023-04-30T11:09:39;16.48;;;12.52;;
18732;SDS011;9495;51.210;2.934;2023-04-30T11:12:18;12.15;;;8.40;;
18732;SDS011;9495;51.210;2.934;2023-04-30T11:14:59;27.85;;;20.27;;
18732;SDS011;9495;51.210;2.934;2023-04-30T11:17:28;26.75;;;20.02;;
18732;SDS011;9495;51.210;2.934;2023-04-30T11:19:58;33.00;;;22.17;;
18732;SDS011;9495;51.210;2.934;2023-04-30T11:22:27;29.35;;;20.25;;
18732;SDS011;9495;51.210;2.934;2023-04-30T11:25:03;25.80;;;19.58;;
18732;SDS011;9495;51.210;2.934;2023-04-30T11:27:35;26.67;;;20.10;;
18732;SDS011;9495;51.210;2.934;2023-04-30T11:30:09;24.65;;;19.48;;
18732;SDS011;9495;51.210;2.934;2023-04-30T11:32:43;24.83;;;19.38;;
18732;SDS011;9495;51.210;2.934;2023-04-30T11:35:14;28.30;;;19.60;;
18732;SDS011;9495;51.210;2.934;2023-04-30T11:37:45;28.02;;;20.45;;
18732;SDS011;9495;51.210;2.934;2023-04-30T11:40:16;26.92;;;20.38;;
18732;SDS011;9495;51.210;2.934;2023-04-30T11:42:44;25.20;;;19.60;;
18732;SDS011;9495;51.210;2.934;2023-04-30T11:45:14;31.10;;;22.80;;
18732;SDS011;9495;51.210;2.934;2023-04-30T11:47:47;26.85;;;21.23;;
18732;SDS011;9495;51.210;2.934;2023-04-30T11:50:17;28.35;;;17.17;;
18732;SDS011;9495;51.210;2.934;2023-04-30T11:52:47;25.20;;;21.38;;
18732;SDS011;9495;51.210;2.934;2023-04-30T11:55:18;28.58;;;21.20;;
18732;SDS011;9495;51.210;2.934;2023-04-30T11:57:48;28.77;;;21.60;;
18732;SDS011;9495;51.210;2.934;2023-04-30T12:00:19;28.77;;;21.63;;
18732;SDS011;9495;51.210;2.934;2023-04-30T12:02:48;29.98;;;22.27;;
18732;SDS011;9495;51.210;2.934;2023-04-30T12:05:17;28.33;;;22.30;;
18732;SDS011;9495;51.210;2.934;2023-04-30T12:07:47;28.58;;;20.27;;
18732;SDS011;9495;51.210;2.934;2023-04-30T12:10:18;25.60;;;18.70;;
18732;SDS011;9495;51.210;2.934;2023-04-30T12:12:48;27.33;;;18.15;;
18732;SDS011;9495;51.210;2.934;2023-04-30T12:15:19;27.08;;;20.48;;
18732;SDS011;9495;51.210;2.934;2023-04-30T12:17:52;24.98;;;19.90;;
18732;SDS011;9495;51.210;2.934;2023-04-30T12:20:22;25.13;;;20.05;;
18732;SDS011;9495;51.210;2.934;2023-04-30T12:22:53;23.67;;;17.42;;
18732;SDS011;9495;51.210;2.934;2023-04-30T12:25:23;25.73;;;17.63;;
18732;SDS011;9495;51.210;2.934;2023-04-30T12:27:54;21.15;;;17.30;;
18732;SDS011;9495;51.210;2.934;2023-04-30T12:30:26;22.67;;;17.05;;
18732;SDS011;9495;51.210;2.934;2023-04-30T12:32:57;24.00;;;17.35;;
18732;SDS011;9495;51.210;2.934;2023-04-30T12:35:26;21.48;;;17.33;;
18732;SDS011;9495;51.210;2.934;2023-04-30T12:38:00;21.35;;;15.50;;
18732;SDS011;9495;51.210;2.934;2023-04-30T12:40:31;21.05;;;16.65;;
18732;SDS011;9495;51.210;2.934;2023-04-30T12:43:00;22.25;;;16.40;;
18732;SDS011;9495;51.210;2.934;2023-04-30T12:45:42;17.27;;;13.73;;
18732;SDS011;9495;51.210;2.934;2023-04-30T12:48:11;19.73;;;14.98;;
18732;SDS011;9495;51.210;2.934;2023-04-30T12:50:41;19.80;;;15.88;;
18732;SDS011;9495;51.210;2.934;2023-04-30T12:53:13;21.55;;;15.23;;
18732;SDS011;9495;51.210;2.934;2023-04-30T12:55:43;20.40;;;14.63;;
18732;SDS011;9495;51.210;2.934;2023-04-30T12:58:31;18.27;;;14.10;;
18732;SDS011;9495;51.210;2.934;2023-04-30T13:01:02;16.73;;;11.60;;
18732;SDS011;9495;51.210;2.934;2023-04-30T13:03:30;15.80;;;11.45;;
18732;SDS011;9495;51.210;2.934;2023-04-30T13:05:59;17.73;;;13.50;;
18732;SDS011;9495;51.210;2.934;2023-04-30T13:08:30;22.40;;;13.45;;
18732;SDS011;9495;51.210;2.934;2023-04-30T13:11:16;18.83;;;14.10;;
18732;SDS011;9495;51.210;2.934;2023-04-30T13:13:45;19.33;;;14.23;;
18732;SDS011;9495;51.210;2.934;2023-04-30T13:16:13;21.25;;;15.98;;
18732;SDS011;9495;51.210;2.934;2023-04-30T13:18:42;21.08;;;14.80;;
18732;SDS011;9495;51.210;2.934;2023-04-30T13:21:11;22.73;;;16.13;;
18732;SDS011;9495;51.210;2.934;2023-04-30T13:23:39;22.65;;;15.00;;
18732;SDS011;9495;51.210;2.934;2023-04-30T13:26:19;19.10;;;14.63;;
18732;SDS011;9495;51.210;2.934;2023-04-30T13:28:49;21.40;;;15.05;;
18732;SDS011;9495;51.210;2.934;2023-04-30T13:31:18;21.65;;;15.27;;
18732;SDS011;9495;51.210;2.934;2023-04-30T13:33:47;21.40;;;15.10;;
18732;SDS011;9495;51.210;2.934;2023-04-30T13:36:16;18.17;;;14.80;;
18732;SDS011;9495;51.210;2.934;2023-04-30T13:38:44;21.58;;;15.70;;
18732;SDS011;9495;51.210;2.934;2023-04-30T13:41:13;18.80;;;13.95;;
18732;SDS011;9495;51.210;2.934;2023-04-30T13:43:43;20.45;;;14.27;;
18732;SDS011;9495;51.210;2.934;2023-04-30T13:46:13;19.02;;;14.43;;
18732;SDS011;9495;51.210;2.934;2023-04-30T13:48:42;20.17;;;13.82;;
18732;SDS011;9495;51.210;2.934;2023-04-30T13:51:13;21.05;;;14.07;;
18732;SDS011;9495;51.210;2.934;2023-04-30T13:53:42;15.75;;;12.20;;
18732;SDS011;9495;51.210;2.934;2023-04-30T13:56:10;16.45;;;11.57;;
18732;SDS011;9495;51.210;2.934;2023-04-30T13:58:41;15.57;;;12.73;;
18732;SDS011;9495;51.210;2.934;2023-04-30T14:01:10;20.27;;;13.88;;
18732;SDS011;9495;51.210;2.934;2023-04-30T14:03:39;14.15;;;11.27;;
18732;SDS011;9495;51.210;2.934;2023-04-30T14:06:08;17.85;;;11.75;;
18732;SDS011;9495;51.210;2.934;2023-04-30T14:08:37;21.83;;;13.00;;
18732;SDS011;9495;51.210;2.934;2023-04-30T14:11:05;20.13;;;12.70;;
18732;SDS011;9495;51.210;2.934;2023-04-30T14:13:34;17.73;;;11.90;;
18732;SDS011;9495;51.210;2.934;2023-04-30T14:16:04;17.85;;;11.68;;
18732;SDS011;9495;51.210;2.934;2023-04-30T14:18:33;18.23;;;11.02;;
18732;SDS011;9495;51.210;2.934;2023-04-30T14:21:02;14.23;;;11.90;;
18732;SDS011;9495;51.210;2.934;2023-04-30T14:23:30;13.18;;;9.70;;
18732;SDS011;9495;51.210;2.934;2023-04-30T14:25:59;15.48;;;11.35;;
18732;SDS011;9495;51.210;2.934;2023-04-30T14:28:27;18.77;;;11.65;;
18732;SDS011;9495;51.210;2.934;2023-04-30T14:30:56;17.48;;;11.32;;
18732;SDS011;9495;51.210;2.934;2023-04-30T14:33:25;18.52;;;12.10;;
18732;SDS011;9495;51.210;2.934;2023-04-30T14:35:54;16.92;;;10.63;;
18732;SDS011;9495;51.210;2.934;2023-04-30T14:38:23;27.85;;;12.55;;
18732;SDS011;9495;51.210;2.934;2023-04-30T14:40:52;14.27;;;11.68;;
18732;SDS011;9495;51.210;2.934;2023-04-30T14:43:20;15.68;;;11.15;;
18732;SDS011;9495;51.210;2.934;2023-04-30T14:45:49;16.58;;;11.13;;
18732;SDS011;9495;51.210;2.934;2023-04-30T14:48:18;14.93;;;11.32;;
18732;SDS011;9495;51.210;2.934;2023-04-30T14:50:48;17.40;;;11.68;;
18732;SDS011;9495;51.210;2.934;2023-04-30T14:53:17;23.48;;;11.98;;
18732;SDS011;9495;51.210;2.934;2023-04-30T14:55:45;14.45;;;10.95;;